sensor_id;sensor_type;location;lat;lon;timestamp;temperature;humidity
67050;DHT22;53955;52.442;13.284;2023-04-25T00:00:00;13.30;46.50
67050;DHT22;53955;52.442;13.284;2023-04-25T00:02:27;13.30;46.00
67050;DHT22;53955;52.442;13.284;2023-04-25T00:04:54;13.30;45.80
67050;DHT22;53955;52.442;13.284;2023-04-25T00:07:24;13.40;45.50
67050;DHT22;53955;52.442;13.284;2023-04-25T00:09:51;13.20;45.70
67050;DHT22;53955;52.442;13.284;2023-04-25T00:12:18;13.20;45.60
67050;DHT22;53955;52.442;13.284;2023-04-25T00:14:45;13.30;46.50
67050;DHT22;53955;52.442;13.284;2023-04-25T00:17:12;13.20;46.60
67050;DHT22;53955;52.442;13.284;2023-04-25T00:19:38;13.30;45.50
67050;DHT22;53955;52.442;13.284;2023-04-25T00:22:06;13.30;45.90
67050;DHT22;53955;52.442;13.284;2023-04-25T00:24:33;13.40;46.10
67050;DHT22;53955;52.442;13.284;2023-04-25T00:27:00;13.30;45.80
67050;DHT22;53955;52.442;13.284;2023-04-25T00:29:26;13.40;45.60
67050;DHT22;53955;52.442;13.284;2023-04-25T00:31:53;13.30;45.40
67050;DHT22;53955;52.442;13.284;2023-04-25T00:34:19;13.30;45.80
67050;DHT22;53955;52.442;13.284;2023-04-25T00:36:46;13.40;45.20
67050;DHT22;53955;52.442;13.284;2023-04-25T00:39:14;13.30;46.30
67050;DHT22;53955;52.442;13.284;2023-04-25T00:41:41;13.30;45.50
67050;DHT22;53955;52.442;13.284;2023-04-25T00:44:08;13.30;47.00
67050;DHT22;53955;52.442;13.284;2023-04-25T00:46:36;13.30;45.90
67050;DHT22;53955;52.442;13.284;2023-04-25T00:49:03;13.20;46.60
67050;DHT22;53955;52.442;13.284;2023-04-25T00:51:30;13.20;46.70
67050;DHT22;53955;52.442;13.284;2023-04-25T00:53:58;13.20;46.60
67050;DHT22;53955;52.442;13.284;2023-04-25T00:56:26;13.30;46.30
67050;DHT22;53955;52.442;13.284;2023-04-25T00:58:54;13.20;46.70
67050;DHT22;53955;52.442;13.284;2023-04-25T01:01:22;13.30;46.60
67050;DHT22;53955;52.442;13.284;2023-04-25T01:03:49;13.10;46.40
67050;DHT22;53955;52.442;13.284;2023-04-25T01:06:16;13.20;46.60
67050;DHT22;53955;52.442;13.284;2023-04-25T01:08:43;13.10;46.50
67050;DHT22;53955;52.442;13.284;2023-04-25T01:11:10;13.10;46.40
67050;DHT22;53955;52.442;13.284;2023-04-25T01:13:38;13.10;46.70
67050;DHT22;53955;52.442;13.284;2023-04-25T01:16:05;13.10;47.00
67050;DHT22;53955;52.442;13.284;2023-04-25T01:18:31;13.20;47.40
67050;DHT22;53955;52.442;13.284;2023-04-25T01:21:05;13.10;46.60
67050;DHT22;53955;52.442;13.284;2023-04-25T01:23:33;13.10;47.50
67050;DHT22;53955;52.442;13.284;2023-04-25T01:26:00;13.10;46.80
67050;DHT22;53955;52.442;13.284;2023-04-25T01:28:27;13.20;46.90
67050;DHT22;53955;52.442;13.284;2023-04-25T01:30:54;13.20;47.20
67050;DHT22;53955;52.442;13.284;2023-04-25T01:33:21;13.10;47.30
67050;DHT22;53955;52.442;13.284;2023-04-25T01:35:48;13.10;47.20
67050;DHT22;53955;52.442;13.284;2023-04-25T01:38:16;13.00;47.50
67050;DHT22;53955;52.442;13.284;2023-04-25T01:40:45;13.10;47.60
67050;DHT22;53955;52.442;13.284;2023-04-25T01:43:12;13.10;47.80
67050;DHT22;53955;52.442;13.284;2023-04-25T01:45:39;13.20;46.90
67050;DHT22;53955;52.442;13.284;2023-04-25T01:48:06;13.30;47.00
67050;DHT22;53955;52.442;13.284;2023-04-25T01:50:33;13.30;47.00
67050;DHT22;53955;52.442;13.284;2023-04-25T01:53:00;13.20;46.60
67050;DHT22;53955;52.442;13.284;2023-04-25T01:55:28;13.20;46.60
67050;DHT22;53955;52.442;13.284;2023-04-25T01:57:55;13.20;46.90
67050;DHT22;53955;52.442;13.284;2023-04-25T02:00:22;13.20;46.40
67050;DHT22;53955;52.442;13.284;2023-04-25T02:02:48;13.20;47.30
67050;DHT22;53955;52.442;13.284;2023-04-25T02:05:16;13.20;47.10
67050;DHT22;53955;52.442;13.284;2023-04-25T02:07:42;13.20;46.70
67050;DHT22;53955;52.442;13.284;2023-04-25T02:10:09;13.10;47.00
67050;DHT22;53955;52.442;13.284;2023-04-25T02:12:37;13.00;47.10
67050;DHT22;53955;52.442;13.284;2023-04-25T02:15:05;13.00;46.80
67050;DHT22;53955;52.442;13.284;2023-04-25T02:17:32;13.00;47.30
67050;DHT22;53955;52.442;13.284;2023-04-25T02:19:59;13.00;47.00
67050;DHT22;53955;52.442;13.284;2023-04-25T02:22:25;13.00;47.00
67050;DHT22;53955;52.442;13.284;2023-04-25T02:24:55;12.90;46.80
67050;DHT22;53955;52.442;13.284;2023-04-25T02:27:21;12.90;47.90
67050;DHT22;53955;52.442;13.284;2023-04-25T02:29:49;12.90;47.00
67050;DHT22;53955;52.442;13.284;2023-04-25T02:32:16;12.80;47.60
67050;DHT22;53955;52.442;13.284;2023-04-25T02:34:42;12.80;47.60
67050;DHT22;53955;52.442;13.284;2023-04-25T02:37:09;12.90;47.80
67050;DHT22;53955;52.442;13.284;2023-04-25T02:39:36;12.90;47.70
67050;DHT22;53955;52.442;13.284;2023-04-25T02:42:03;12.90;48.30
67050;DHT22;53955;52.442;13.284;2023-04-25T02:44:29;12.90;47.20
67050;DHT22;53955;52.442;13.284;2023-04-25T02:46:57;12.90;47.20
67050;DHT22;53955;52.442;13.284;2023-04-25T02:49:24;12.90;48.10
67050;DHT22;53955;52.442;13.284;2023-04-25T02:51:51;12.90;47.20
67050;DHT22;53955;52.442;13.284;2023-04-25T02:54:17;12.90;47.80
67050;DHT22;53955;52.442;13.284;2023-04-25T02:56:44;13.00;47.30
67050;DHT22;53955;52.442;13.284;2023-04-25T02:59:10;12.90;47.40
67050;DHT22;53955;52.442;13.284;2023-04-25T03:01:37;13.00;47.70
67050;DHT22;53955;52.442;13.284;2023-04-25T03:04:05;12.90;47.60
67050;DHT22;53955;52.442;13.284;2023-04-25T03:06:31;13.00;47.30
67050;DHT22;53955;52.442;13.284;2023-04-25T03:08:58;13.00;47.50
67050;DHT22;53955;52.442;13.284;2023-04-25T03:11:25;13.00;48.00
67050;DHT22;53955;52.442;13.284;2023-04-25T03:13:52;13.00;47.90
67050;DHT22;53955;52.442;13.284;2023-04-25T03:16:19;13.00;47.10
67050;DHT22;53955;52.442;13.284;2023-04-25T03:18:46;12.90;47.60
67050;DHT22;53955;52.442;13.284;2023-04-25T03:21:13;12.90;48.00
67050;DHT22;53955;52.442;13.284;2023-04-25T03:23:40;12.80;48.00
67050;DHT22;53955;52.442;13.284;2023-04-25T03:26:07;12.80;47.80
67050;DHT22;53955;52.442;13.284;2023-04-25T03:28:33;12.80;48.30
67050;DHT22;53955;52.442;13.284;2023-04-25T03:31:00;12.80;48.40
67050;DHT22;53955;52.442;13.284;2023-04-25T03:33:26;12.80;48.40
67050;DHT22;53955;52.442;13.284;2023-04-25T03:35:53;13.10;60.00
67050;DHT22;53955;52.442;13.284;2023-04-25T03:38:21;13.20;47.90
67050;DHT22;53955;52.442;13.284;2023-04-25T03:40:47;13.00;47.10
67050;DHT22;53955;52.442;13.284;2023-04-25T03:43:14;12.90;48.00
67050;DHT22;53955;52.442;13.284;2023-04-25T03:45:40;12.80;48.20
67050;DHT22;53955;52.442;13.284;2023-04-25T03:48:07;12.80;48.60
67050;DHT22;53955;52.442;13.284;2023-04-25T03:50:34;12.70;48.10
67050;DHT22;53955;52.442;13.284;2023-04-25T03:53:01;12.70;50.10
67050;DHT22;53955;52.442;13.284;2023-04-25T03:55:29;12.70;48.40
67050;DHT22;53955;52.442;13.284;2023-04-25T03:57:57;12.70;49.90
67050;DHT22;53955;52.442;13.284;2023-04-25T04:00:24;12.70;48.60
67050;DHT22;53955;52.442;13.284;2023-04-25T04:02:50;12.60;50.30
67050;DHT22;53955;52.442;13.284;2023-04-25T04:05:17;12.70;49.00
67050;DHT22;53955;52.442;13.284;2023-04-25T04:07:44;12.70;49.20
67050;DHT22;53955;52.442;13.284;2023-04-25T04:10:11;12.60;49.90
67050;DHT22;53955;52.442;13.284;2023-04-25T04:12:39;12.70;49.00
67050;DHT22;53955;52.442;13.284;2023-04-25T04:15:07;12.80;49.60
67050;DHT22;53955;52.442;13.284;2023-04-25T04:17:33;12.70;49.00
67050;DHT22;53955;52.442;13.284;2023-04-25T04:20:00;12.70;49.20
67050;DHT22;53955;52.442;13.284;2023-04-25T04:22:28;12.70;49.20
67050;DHT22;53955;52.442;13.284;2023-04-25T04:24:55;12.70;50.20
67050;DHT22;53955;52.442;13.284;2023-04-25T04:27:23;12.80;48.90
67050;DHT22;53955;52.442;13.284;2023-04-25T04:29:51;12.80;48.90
67050;DHT22;53955;52.442;13.284;2023-04-25T04:32:18;12.70;51.20
67050;DHT22;53955;52.442;13.284;2023-04-25T04:34:45;12.80;49.20
67050;DHT22;53955;52.442;13.284;2023-04-25T04:37:13;12.70;49.60
67050;DHT22;53955;52.442;13.284;2023-04-25T04:39:40;12.90;49.60
67050;DHT22;53955;52.442;13.284;2023-04-25T04:42:07;13.00;49.90
67050;DHT22;53955;52.442;13.284;2023-04-25T04:44:33;12.90;49.50
67050;DHT22;53955;52.442;13.284;2023-04-25T04:47:02;13.00;49.00
67050;DHT22;53955;52.442;13.284;2023-04-25T04:49:31;13.00;49.40
67050;DHT22;53955;52.442;13.284;2023-04-25T04:51:58;13.00;50.10
67050;DHT22;53955;52.442;13.284;2023-04-25T04:54:26;13.00;49.50
67050;DHT22;53955;52.442;13.284;2023-04-25T04:56:52;12.90;49.00
67050;DHT22;53955;52.442;13.284;2023-04-25T04:59:19;12.90;49.20
67050;DHT22;53955;52.442;13.284;2023-04-25T05:01:46;12.90;49.20
67050;DHT22;53955;52.442;13.284;2023-04-25T05:04:14;12.90;50.30
67050;DHT22;53955;52.442;13.284;2023-04-25T05:06:41;12.90;49.80
67050;DHT22;53955;52.442;13.284;2023-04-25T05:09:07;13.00;49.50
67050;DHT22;53955;52.442;13.284;2023-04-25T05:11:34;12.90;49.70
67050;DHT22;53955;52.442;13.284;2023-04-25T05:14:01;13.00;49.50
67050;DHT22;53955;52.442;13.284;2023-04-25T05:16:27;12.90;48.90
67050;DHT22;53955;52.442;13.284;2023-04-25T05:18:54;12.80;50.10
67050;DHT22;53955;52.442;13.284;2023-04-25T05:21:22;12.80;49.90
67050;DHT22;53955;52.442;13.284;2023-04-25T05:23:49;12.80;50.10
67050;DHT22;53955;52.442;13.284;2023-04-25T05:26:15;12.70;50.30
67050;DHT22;53955;52.442;13.284;2023-04-25T05:28:42;12.70;50.20
67050;DHT22;53955;52.442;13.284;2023-04-25T05:31:09;12.70;50.60
67050;DHT22;53955;52.442;13.284;2023-04-25T05:33:36;12.70;50.60
67050;DHT22;53955;52.442;13.284;2023-04-25T05:36:03;12.80;50.40
67050;DHT22;53955;52.442;13.284;2023-04-25T05:38:31;12.80;50.50
67050;DHT22;53955;52.442;13.284;2023-04-25T05:40:57;12.80;50.90
67050;DHT22;53955;52.442;13.284;2023-04-25T05:43:24;12.90;50.70
67050;DHT22;53955;52.442;13.284;2023-04-25T05:45:51;12.90;50.90
67050;DHT22;53955;52.442;13.284;2023-04-25T05:48:17;12.90;50.80
67050;DHT22;53955;52.442;13.284;2023-04-25T05:50:44;12.80;50.80
67050;DHT22;53955;52.442;13.284;2023-04-25T05:53:10;12.90;50.90
67050;DHT22;53955;52.442;13.284;2023-04-25T05:55:38;12.80;51.00
67050;DHT22;53955;52.442;13.284;2023-04-25T05:58:05;12.80;51.10
67050;DHT22;53955;52.442;13.284;2023-04-25T06:00:32;12.90;51.50
67050;DHT22;53955;52.442;13.284;2023-04-25T06:02:59;12.80;51.70
67050;DHT22;53955;52.442;13.284;2023-04-25T06:05:26;12.80;51.50
67050;DHT22;53955;52.442;13.284;2023-04-25T06:07:52;12.80;51.50
67050;DHT22;53955;52.442;13.284;2023-04-25T06:10:19;12.70;51.60
67050;DHT22;53955;52.442;13.284;2023-04-25T06:12:47;12.80;51.50
67050;DHT22;53955;52.442;13.284;2023-04-25T06:15:14;12.90;51.30
67050;DHT22;53955;52.442;13.284;2023-04-25T06:17:41;12.80;51.30
67050;DHT22;53955;52.442;13.284;2023-04-25T06:20:08;12.90;51.40
67050;DHT22;53955;52.442;13.284;2023-04-25T06:22:35;12.80;52.00
67050;DHT22;53955;52.442;13.284;2023-04-25T06:25:02;12.80;52.60
67050;DHT22;53955;52.442;13.284;2023-04-25T06:27:29;12.80;52.20
67050;DHT22;53955;52.442;13.284;2023-04-25T06:29:57;12.90;51.50
67050;DHT22;53955;52.442;13.284;2023-04-25T06:32:24;12.90;51.80
67050;DHT22;53955;52.442;13.284;2023-04-25T06:34:52;12.80;52.00
67050;DHT22;53955;52.442;13.284;2023-04-25T06:37:19;12.80;52.80
67050;DHT22;53955;52.442;13.284;2023-04-25T06:39:46;12.70;52.50
67050;DHT22;53955;52.442;13.284;2023-04-25T06:42:12;12.80;52.50
67050;DHT22;53955;52.442;13.284;2023-04-25T06:44:39;12.80;52.50
67050;DHT22;53955;52.442;13.284;2023-04-25T06:47:07;12.80;52.30
67050;DHT22;53955;52.442;13.284;2023-04-25T06:49:33;12.80;52.80
67050;DHT22;53955;52.442;13.284;2023-04-25T06:52:00;12.90;52.60
67050;DHT22;53955;52.442;13.284;2023-04-25T06:54:26;12.90;52.20
67050;DHT22;53955;52.442;13.284;2023-04-25T06:56:55;12.90;52.40
67050;DHT22;53955;52.442;13.284;2023-04-25T06:59:22;12.90;52.70
67050;DHT22;53955;52.442;13.284;2023-04-25T07:01:48;12.80;52.50
67050;DHT22;53955;52.442;13.284;2023-04-25T07:04:16;12.70;53.50
67050;DHT22;53955;52.442;13.284;2023-04-25T07:06:43;12.70;53.50
67050;DHT22;53955;52.442;13.284;2023-04-25T07:09:10;12.70;54.90
67050;DHT22;53955;52.442;13.284;2023-04-25T07:11:36;12.70;56.50
67050;DHT22;53955;52.442;13.284;2023-04-25T07:14:03;12.60;56.90
67050;DHT22;53955;52.442;13.284;2023-04-25T07:16:29;12.50;58.60
67050;DHT22;53955;52.442;13.284;2023-04-25T07:18:56;12.50;58.30
67050;DHT22;53955;52.442;13.284;2023-04-25T07:21:24;12.50;57.30
67050;DHT22;53955;52.442;13.284;2023-04-25T07:23:51;12.50;58.40
67050;DHT22;53955;52.442;13.284;2023-04-25T07:26:17;12.50;58.40
67050;DHT22;53955;52.442;13.284;2023-04-25T07:28:44;12.50;58.20
67050;DHT22;53955;52.442;13.284;2023-04-25T07:31:11;12.50;57.80
67050;DHT22;53955;52.442;13.284;2023-04-25T07:33:37;12.50;56.40
67050;DHT22;53955;52.442;13.284;2023-04-25T07:36:05;12.50;55.40
67050;DHT22;53955;52.442;13.284;2023-04-25T07:38:32;12.60;54.70
67050;DHT22;53955;52.442;13.284;2023-04-25T07:40:59;12.50;54.40
67050;DHT22;53955;52.442;13.284;2023-04-25T07:43:26;12.50;54.50
67050;DHT22;53955;52.442;13.284;2023-04-25T07:45:52;12.60;54.20
67050;DHT22;53955;52.442;13.284;2023-04-25T07:48:19;12.70;52.70
67050;DHT22;53955;52.442;13.284;2023-04-25T07:50:46;12.60;53.80
67050;DHT22;53955;52.442;13.284;2023-04-25T07:53:12;12.70;53.70
67050;DHT22;53955;52.442;13.284;2023-04-25T07:55:40;12.70;52.30
67050;DHT22;53955;52.442;13.284;2023-04-25T07:58:07;12.60;53.70
67050;DHT22;53955;52.442;13.284;2023-04-25T08:00:34;12.70;52.90
67050;DHT22;53955;52.442;13.284;2023-04-25T08:03:00;12.70;52.20
67050;DHT22;53955;52.442;13.284;2023-04-25T08:05:28;12.70;52.60
67050;DHT22;53955;52.442;13.284;2023-04-25T08:07:54;12.80;51.60
67050;DHT22;53955;52.442;13.284;2023-04-25T08:10:22;12.80;50.80
67050;DHT22;53955;52.442;13.284;2023-04-25T08:12:50;12.80;51.30
67050;DHT22;53955;52.442;13.284;2023-04-25T08:15:16;12.90;52.00
67050;DHT22;53955;52.442;13.284;2023-04-25T08:17:43;12.90;50.30
67050;DHT22;53955;52.442;13.284;2023-04-25T08:20:11;12.80;49.70
67050;DHT22;53955;52.442;13.284;2023-04-25T08:22:46;13.30;48.50
67050;DHT22;53955;52.442;13.284;2023-04-25T08:25:14;13.80;44.80
67050;DHT22;53955;52.442;13.284;2023-04-25T08:27:40;14.20;42.90
67050;DHT22;53955;52.442;13.284;2023-04-25T08:30:08;14.30;41.40
67050;DHT22;53955;52.442;13.284;2023-04-25T08:32:35;14.30;40.40
67050;DHT22;53955;52.442;13.284;2023-04-25T08:35:04;14.30;40.30
67050;DHT22;53955;52.442;13.284;2023-04-25T08:37:30;14.20;40.10
67050;DHT22;53955;52.442;13.284;2023-04-25T08:39:58;14.30;40.00
67050;DHT22;53955;52.442;13.284;2023-04-25T08:42:26;14.30;39.30
67050;DHT22;53955;52.442;13.284;2023-04-25T08:44:54;14.20;40.00
67050;DHT22;53955;52.442;13.284;2023-04-25T08:47:22;14.40;38.00
67050;DHT22;53955;52.442;13.284;2023-04-25T08:49:49;14.40;36.90
67050;DHT22;53955;52.442;13.284;2023-04-25T08:52:22;14.30;37.60
67050;DHT22;53955;52.442;13.284;2023-04-25T08:54:48;14.30;37.00
67050;DHT22;53955;52.442;13.284;2023-04-25T08:57:17;14.40;35.70
67050;DHT22;53955;52.442;13.284;2023-04-25T08:59:45;14.80;34.80
67050;DHT22;53955;52.442;13.284;2023-04-25T09:02:12;15.20;34.30
67050;DHT22;53955;52.442;13.284;2023-04-25T09:04:43;15.50;32.80
67050;DHT22;53955;52.442;13.284;2023-04-25T09:07:09;15.80;30.40
67050;DHT22;53955;52.442;13.284;2023-04-25T09:09:36;15.90;30.00
67050;DHT22;53955;52.442;13.284;2023-04-25T09:12:03;16.10;30.50
67050;DHT22;53955;52.442;13.284;2023-04-25T09:14:31;16.40;28.30
67050;DHT22;53955;52.442;13.284;2023-04-25T09:17:02;16.50;28.90
67050;DHT22;53955;52.442;13.284;2023-04-25T09:19:31;16.40;28.30
67050;DHT22;53955;52.442;13.284;2023-04-25T09:22:00;16.40;28.60
67050;DHT22;53955;52.442;13.284;2023-04-25T09:24:31;16.30;28.00
67050;DHT22;53955;52.442;13.284;2023-04-25T09:26:58;16.20;28.70
67050;DHT22;53955;52.442;13.284;2023-04-25T09:29:31;16.00;29.30
67050;DHT22;53955;52.442;13.284;2023-04-25T09:32:11;16.00;29.20
67050;DHT22;53955;52.442;13.284;2023-04-25T09:34:42;15.90;29.30
67050;DHT22;53955;52.442;13.284;2023-04-25T09:37:09;16.00;28.90
67050;DHT22;53955;52.442;13.284;2023-04-25T09:39:36;15.90;30.00
67050;DHT22;53955;52.442;13.284;2023-04-25T09:42:03;15.80;29.30
67050;DHT22;53955;52.442;13.284;2023-04-25T09:44:31;15.70;29.10
67050;DHT22;53955;52.442;13.284;2023-04-25T09:46:58;15.50;29.70
67050;DHT22;53955;52.442;13.284;2023-04-25T09:49:25;15.50;30.60
67050;DHT22;53955;52.442;13.284;2023-04-25T09:51:55;15.40;32.10
67050;DHT22;53955;52.442;13.284;2023-04-25T09:54:23;15.40;32.30
67050;DHT22;53955;52.442;13.284;2023-04-25T09:56:51;15.50;30.60
67050;DHT22;53955;52.442;13.284;2023-04-25T09:59:20;15.30;32.00
67050;DHT22;53955;52.442;13.284;2023-04-25T10:01:48;15.30;31.50
67050;DHT22;53955;52.442;13.284;2023-04-25T10:04:19;15.00;30.90
67050;DHT22;53955;52.442;13.284;2023-04-25T10:06:48;14.90;31.80
67050;DHT22;53955;52.442;13.284;2023-04-25T10:09:16;14.90;31.70
67050;DHT22;53955;52.442;13.284;2023-04-25T10:11:44;15.00;32.10
67050;DHT22;53955;52.442;13.284;2023-04-25T10:14:11;15.00;31.40
67050;DHT22;53955;52.442;13.284;2023-04-25T10:16:40;15.00;30.00
67050;DHT22;53955;52.442;13.284;2023-04-25T10:19:09;15.00;30.30
67050;DHT22;53955;52.442;13.284;2023-04-25T10:21:38;15.00;29.60
67050;DHT22;53955;52.442;13.284;2023-04-25T10:24:09;14.90;30.50
67050;DHT22;53955;52.442;13.284;2023-04-25T10:26:35;14.90;30.10
67050;DHT22;53955;52.442;13.284;2023-04-25T10:29:03;14.80;28.90
67050;DHT22;53955;52.442;13.284;2023-04-25T10:31:30;14.80;30.30
67050;DHT22;53955;52.442;13.284;2023-04-25T10:33:57;15.00;29.20
67050;DHT22;53955;52.442;13.284;2023-04-25T10:36:31;15.10;28.90
67050;DHT22;53955;52.442;13.284;2023-04-25T10:39:03;15.20;29.00
67050;DHT22;53955;52.442;13.284;2023-04-25T10:41:45;15.30;29.20
67050;DHT22;53955;52.442;13.284;2023-04-25T10:44:13;15.40;29.50
67050;DHT22;53955;52.442;13.284;2023-04-25T10:46:40;15.30;29.80
67050;DHT22;53955;52.442;13.284;2023-04-25T10:49:08;15.10;29.60
67050;DHT22;53955;52.442;13.284;2023-04-25T10:51:36;14.90;29.30
67050;DHT22;53955;52.442;13.284;2023-04-25T10:54:04;14.70;29.20
67050;DHT22;53955;52.442;13.284;2023-04-25T10:56:32;14.50;29.10
67050;DHT22;53955;52.442;13.284;2023-04-25T10:59:06;14.40;30.70
67050;DHT22;53955;52.442;13.284;2023-04-25T11:01:37;14.40;30.40
67050;DHT22;53955;52.442;13.284;2023-04-25T11:04:03;14.60;30.10
67050;DHT22;53955;52.442;13.284;2023-04-25T11:06:33;14.70;29.60
67050;DHT22;53955;52.442;13.284;2023-04-25T11:09:09;14.70;27.40
67050;DHT22;53955;52.442;13.284;2023-04-25T11:11:38;14.50;28.20
67050;DHT22;53955;52.442;13.284;2023-04-25T11:14:05;14.40;27.90
67050;DHT22;53955;52.442;13.284;2023-04-25T11:16:31;14.30;28.90
67050;DHT22;53955;52.442;13.284;2023-04-25T11:18:58;14.10;29.30
67050;DHT22;53955;52.442;13.284;2023-04-25T11:21:25;14.20;29.70
67050;DHT22;53955;52.442;13.284;2023-04-25T11:23:53;14.20;29.80
67050;DHT22;53955;52.442;13.284;2023-04-25T11:26:21;14.20;30.00
67050;DHT22;53955;52.442;13.284;2023-04-25T11:28:49;14.20;28.70
67050;DHT22;53955;52.442;13.284;2023-04-25T11:31:15;14.10;29.40
67050;DHT22;53955;52.442;13.284;2023-04-25T11:33:42;14.10;28.20
67050;DHT22;53955;52.442;13.284;2023-04-25T11:36:10;13.90;26.50
67050;DHT22;53955;52.442;13.284;2023-04-25T11:38:37;13.70;25.90
67050;DHT22;53955;52.442;13.284;2023-04-25T11:41:04;13.60;25.90
67050;DHT22;53955;52.442;13.284;2023-04-25T11:43:32;13.70;26.10
67050;DHT22;53955;52.442;13.284;2023-04-25T11:45:58;13.70;26.50
67050;DHT22;53955;52.442;13.284;2023-04-25T11:48:25;13.70;25.10
67050;DHT22;53955;52.442;13.284;2023-04-25T11:50:53;13.80;27.10
67050;DHT22;53955;52.442;13.284;2023-04-25T11:53:20;13.80;27.30
67050;DHT22;53955;52.442;13.284;2023-04-25T11:55:47;13.90;26.10
67050;DHT22;53955;52.442;13.284;2023-04-25T11:58:13;14.00;26.50
67050;DHT22;53955;52.442;13.284;2023-04-25T12:00:43;14.00;27.10
67050;DHT22;53955;52.442;13.284;2023-04-25T12:03:09;14.00;26.10
67050;DHT22;53955;52.442;13.284;2023-04-25T12:05:36;14.00;27.70
67050;DHT22;53955;52.442;13.284;2023-04-25T12:08:10;14.10;27.90
67050;DHT22;53955;52.442;13.284;2023-04-25T12:10:38;14.20;27.80
67050;DHT22;53955;52.442;13.284;2023-04-25T12:13:19;14.20;27.80
67050;DHT22;53955;52.442;13.284;2023-04-25T12:15:47;14.20;27.70
67050;DHT22;53955;52.442;13.284;2023-04-25T12:18:14;14.30;27.40
67050;DHT22;53955;52.442;13.284;2023-04-25T12:20:41;14.30;27.20
67050;DHT22;53955;52.442;13.284;2023-04-25T12:23:08;14.40;26.50
67050;DHT22;53955;52.442;13.284;2023-04-25T12:25:37;14.40;26.50
67050;DHT22;53955;52.442;13.284;2023-04-25T12:28:16;14.40;25.30
67050;DHT22;53955;52.442;13.284;2023-04-25T12:30:59;14.40;25.30
67050;DHT22;53955;52.442;13.284;2023-04-25T12:33:28;14.50;26.20
67050;DHT22;53955;52.442;13.284;2023-04-25T12:35:55;14.50;25.90
67050;DHT22;53955;52.442;13.284;2023-04-25T12:38:23;14.60;26.40
67050;DHT22;53955;52.442;13.284;2023-04-25T12:40:50;14.70;26.70
67050;DHT22;53955;52.442;13.284;2023-04-25T12:43:17;14.70;26.50
67050;DHT22;53955;52.442;13.284;2023-04-25T12:45:44;14.70;25.80
67050;DHT22;53955;52.442;13.284;2023-04-25T12:48:12;14.60;26.20
67050;DHT22;53955;52.442;13.284;2023-04-25T12:50:38;14.50;26.20
67050;DHT22;53955;52.442;13.284;2023-04-25T12:53:05;14.30;26.10
67050;DHT22;53955;52.442;13.284;2023-04-25T12:55:31;14.30;26.80
67050;DHT22;53955;52.442;13.284;2023-04-25T12:57:58;14.20;26.90
67050;DHT22;53955;52.442;13.284;2023-04-25T13:00:24;14.20;27.30
67050;DHT22;53955;52.442;13.284;2023-04-25T13:02:51;14.20;27.00
67050;DHT22;53955;52.442;13.284;2023-04-25T13:05:19;14.10;25.90
67050;DHT22;53955;52.442;13.284;2023-04-25T13:07:46;14.10;26.30
67050;DHT22;53955;52.442;13.284;2023-04-25T13:10:12;14.10;26.40
67050;DHT22;53955;52.442;13.284;2023-04-25T13:12:39;14.10;26.40
67050;DHT22;53955;52.442;13.284;2023-04-25T13:15:07;14.20;27.60
67050;DHT22;53955;52.442;13.284;2023-04-25T13:17:34;14.30;26.90
67050;DHT22;53955;52.442;13.284;2023-04-25T13:20:01;14.40;26.80
67050;DHT22;53955;52.442;13.284;2023-04-25T13:22:31;14.50;27.30
67050;DHT22;53955;52.442;13.284;2023-04-25T13:24:58;14.60;26.10
67050;DHT22;53955;52.442;13.284;2023-04-25T13:27:24;14.60;25.80
67050;DHT22;53955;52.442;13.284;2023-04-25T13:29:51;14.80;26.80
67050;DHT22;53955;52.442;13.284;2023-04-25T13:32:18;14.90;26.00
67050;DHT22;53955;52.442;13.284;2023-04-25T13:34:44;15.00;25.70
67050;DHT22;53955;52.442;13.284;2023-04-25T13:37:11;15.00;26.40
67050;DHT22;53955;52.442;13.284;2023-04-25T13:39:39;15.00;26.70
67050;DHT22;53955;52.442;13.284;2023-04-25T13:42:05;14.90;25.30
67050;DHT22;53955;52.442;13.284;2023-04-25T13:44:32;14.70;25.30
67050;DHT22;53955;52.442;13.284;2023-04-25T13:46:59;14.70;26.40
67050;DHT22;53955;52.442;13.284;2023-04-25T13:49:26;14.60;27.10
67050;DHT22;53955;52.442;13.284;2023-04-25T13:51:52;14.60;26.00
67050;DHT22;53955;52.442;13.284;2023-04-25T13:54:19;14.60;27.00
67050;DHT22;53955;52.442;13.284;2023-04-25T13:56:47;14.60;27.10
67050;DHT22;53955;52.442;13.284;2023-04-25T13:59:14;14.70;27.10
67050;DHT22;53955;52.442;13.284;2023-04-25T14:01:40;14.50;27.10
67050;DHT22;53955;52.442;13.284;2023-04-25T14:04:07;14.30;27.40
67050;DHT22;53955;52.442;13.284;2023-04-25T14:06:34;14.10;27.80
67050;DHT22;53955;52.442;13.284;2023-04-25T14:09:01;14.10;27.60
67050;DHT22;53955;52.442;13.284;2023-04-25T14:11:29;14.10;28.00
67050;DHT22;53955;52.442;13.284;2023-04-25T14:13:57;14.00;28.10
67050;DHT22;53955;52.442;13.284;2023-04-25T14:16:24;13.80;28.40
67050;DHT22;53955;52.442;13.284;2023-04-25T14:18:50;13.60;28.70
67050;DHT22;53955;52.442;13.284;2023-04-25T14:21:17;13.50;28.30
67050;DHT22;53955;52.442;13.284;2023-04-25T14:23:45;13.50;28.30
67050;DHT22;53955;52.442;13.284;2023-04-25T14:26:12;13.30;28.90
67050;DHT22;53955;52.442;13.284;2023-04-25T14:28:38;13.30;28.90
67050;DHT22;53955;52.442;13.284;2023-04-25T14:31:07;13.30;28.80
67050;DHT22;53955;52.442;13.284;2023-04-25T14:33:33;13.20;29.10
67050;DHT22;53955;52.442;13.284;2023-04-25T14:36:00;13.20;29.40
67050;DHT22;53955;52.442;13.284;2023-04-25T14:38:27;13.30;28.60
67050;DHT22;53955;52.442;13.284;2023-04-25T14:40:54;13.40;29.40
67050;DHT22;53955;52.442;13.284;2023-04-25T14:43:20;13.50;30.10
67050;DHT22;53955;52.442;13.284;2023-04-25T14:45:47;13.70;30.40
67050;DHT22;53955;52.442;13.284;2023-04-25T14:48:15;13.80;30.20
67050;DHT22;53955;52.442;13.284;2023-04-25T14:50:44;13.90;29.80
67050;DHT22;53955;52.442;13.284;2023-04-25T14:53:11;14.00;29.20
67050;DHT22;53955;52.442;13.284;2023-04-25T14:55:38;14.10;28.10
67050;DHT22;53955;52.442;13.284;2023-04-25T14:58:04;14.00;29.10
67050;DHT22;53955;52.442;13.284;2023-04-25T15:00:31;14.00;28.60
67050;DHT22;53955;52.442;13.284;2023-04-25T15:02:58;14.00;29.10
67050;DHT22;53955;52.442;13.284;2023-04-25T15:05:26;14.10;29.00
67050;DHT22;53955;52.442;13.284;2023-04-25T15:07:53;14.00;29.50
67050;DHT22;53955;52.442;13.284;2023-04-25T15:10:20;13.90;29.50
67050;DHT22;53955;52.442;13.284;2023-04-25T15:12:46;13.90;29.80
67050;DHT22;53955;52.442;13.284;2023-04-25T15:15:13;13.80;30.30